Time,TemperatureF,DewpointF,PressureIn,WindDirection,WindDirectionDegrees,WindSpeedMPH,WindSpeedGustMPH,Humidity,HourlyPrecipIn,Conditions,Clouds,dailyrainin,SoftwareType,DateUTC
2013-06-02 00:02:00,50.8,43.8,30.30,WSW,241,0.0,0.0,77,0.00,CLR,,0.00,WeatherDisplay:10.37,2013-06-01 23:02:00,
2013-06-02 00:07:00,50.5,43.6,30.30,WSW,241,0.0,0.0,77,0.00,CLR,,0.00,WeatherDisplay:10.37,2013-06-01 23:07:00,
2013-06-02 00:12:00,50.3,44.0,30.30,WSW,242,0.0,0.0,79,0.00,CLR,,0.00,WeatherDisplay:10.37,2013-06-01 23:12:00,
2013-06-02 00:17:00,50.1,43.8,30.30,WSW,242,0.0,0.0,79,0.00,CLR,,0.00,WeatherDisplay:10.37,2013-06-01 23:17:00,
2013-06-02 00:22:00,49.8,43.5,30.30,WSW,242,0.0,0.0,79,0.00,CLR,,0.00,WeatherDisplay:10.37,2013-06-01 23:22:00,
2013-06-02 00:27:00,49.5,43.3,30.30,WSW,242,0.0,0.0,79,0.00,CLR,,0.00,WeatherDisplay:10.37,2013-06-01 23:27:00,
2013-06-02 00:32:00,49.1,43.2,30.30,WSW,242,0.0,0.0,80,0.00,CLR,,0.00,WeatherDisplay:10.37,2013-06-01 23:32:00,
2013-06-02 00:37:00,48.9,43.3,30.30,WSW,242,1.0,0.0,81,0.00,CLR,,0.00,WeatherDisplay:10.37,2013-06-01 23:37:00,
2013-06-02 00:42:00,48.8,43.5,30.30,WSW,242,0.0,0.0,82,0.00,CLR,,0.00,WeatherDisplay:10.37,2013-06-01 23:42:00,
2013-06-02 00:47:00,48.7,43.5,30.30,WSW,241,0.0,0.0,82,0.00,CLR,,0.00,WeatherDisplay:10.37,2013-06-01 23:47:00,
2013-06-02 00:52:00,48.5,43.6,30.30,WSW,242,0.0,0.0,83,0.00,CLR,,0.00,WeatherDisplay:10.37,2013-06-01 23:52:00,
2013-06-02 00:57:00,48.3,43.4,30.30,WSW,242,0.0,0.0,83,0.00,CLR,,0.00,WeatherDisplay:10.37,2013-06-01 23:57:00,
2013-06-02 01:02:00,48.2,43.6,30.31,WSW,242,0.0,0.0,84,0.00,CLR,,0.00,WeatherDisplay:10.37,2013-06-02 00:02:00,
2013-06-02 01:07:00,48.1,43.5,30.31,WSW,242,0.0,0.0,84,0.00,CLR,,0.00,WeatherDisplay:10.37,2013-06-02 00:07:00,
2013-06-02 01:12:00,48.0,43.4,30.31,WSW,242,0.0,0.0,84,0.00,CLR,,0.00,WeatherDisplay:10.37,2013-06-02 00:12:00,
2013-06-02 01:17:00,47.9,43.3,30.31,WSW,242,0.0,0.0,84,0.00,CLR,,0.00,WeatherDisplay:10.37,2013-06-02 00:17:00,
2013-06-02 01:22:00,47.7,43.4,30.31,WSW,241,0.0,0.0,85,0.00,CLR,,0.00,WeatherDisplay:10.37,2013-06-02 00:22:00,
2013-06-02 01:27:00,47.6,43.3,30.31,WSW,242,0.0,0.0,85,0.00,CLR,,0.00,WeatherDisplay:10.37,2013-06-02 00:27:00,
2013-06-02 01:32:00,47.4,43.1,30.31,WSW,241,0.0,0.0,85,0.00,CLR,,0.00,WeatherDisplay:10.37,2013-06-02 00:32:00,
2013-06-02 01:37:00,47.3,43.3,30.31,WSW,242,0.0,0.0,86,0.00,CLR,,0.00,WeatherDisplay:10.37,2013-06-02 00:37:00,
2013-06-02 01:42:00,47.2,43.2,30.31,WSW,242,0.0,0.0,86,0.00,CLR,,0.00,WeatherDisplay:10.37,2013-06-02 00:42:00,
2013-06-02 01:47:00,47.3,43.6,30.31,WSW,242,0.0,0.0,87,0.00,CLR,,0.00,WeatherDisplay:10.37,2013-06-02 00:47:00,
2013-06-02 01:52:00,47.4,43.4,30.31,WSW,242,0.0,0.0,86,0.00,CLR,,0.00,WeatherDisplay:10.37,2013-06-02 00:52:00,
2013-06-02 01:57:00,47.4,43.4,30.31,WSW,238,0.0,0.0,86,0.00,CLR,,0.00,WeatherDisplay:10.37,2013-06-02 00:57:00,
2013-06-02 02:02:00,47.4,43.4,30.31,WSW,237,0.0,0.0,86,0.00,CLR,,0.00,WeatherDisplay:10.37,2013-06-02 01:02:00,
2013-06-02 02:07:00,47.2,43.2,30.31,WSW,238,0.0,0.0,86,0.00,CLR,,0.00,WeatherDisplay:10.37,2013-06-02 01:07:00,
2013-06-02 02:12:00,47.3,43.3,30.31,WSW,237,0.0,0.0,86,0.00,CLR,,0.00,WeatherDisplay:10.37,2013-06-02 01:12:00,
2013-06-02 02:17:00,47.2,43.2,30.31,South,188,0.0,0.0,86,0.00,CLR,,0.00,WeatherDisplay:10.37,2013-06-02 01:17:00,
2013-06-02 02:22:00,47.1,43.1,30.31,South,189,0.0,0.0,86,0.00,CLR,,0.00,WeatherDisplay:10.37,2013-06-02 01:22:00,
2013-06-02 02:27:00,46.9,42.9,30.31,South,188,0.0,0.0,86,0.00,CLR,,0.00,WeatherDisplay:10.37,2013-06-02 01:27:00,
2013-06-02 02:32:00,46.9,43.2,30.31,South,188,0.0,0.0,87,0.00,CLR,,0.00,WeatherDisplay:10.37,2013-06-02 01:32:00,
2013-06-02 02:37:00,46.7,43.0,30.31,South,188,0.0,0.0,87,0.00,CLR,,0.00,WeatherDisplay:10.37,2013-06-02 01:37:00,
2013-06-02 02:42:00,46.6,42.9,30.31,South,188,0.0,0.0,87,0.00,CLR,,0.00,WeatherDisplay:10.37,2013-06-02 01:42:00,
2013-06-02 02:47:00,46.6,42.9,30.31,South,188,0.0,0.0,87,0.00,CLR,,0.00,WeatherDisplay:10.37,2013-06-02 01:47:00,
2013-06-02 02:52:00,46.5,42.8,30.31,South,188,0.0,0.0,87,0.00,CLR,,0.00,WeatherDisplay:10.37,2013-06-02 01:52:00,
2013-06-02 02:57:00,46.4,43.0,30.31,South,188,0.0,0.0,88,0.00,CLR,,0.00,WeatherDisplay:10.37,2013-06-02 01:57:00,
2013-06-02 03:02:00,46.5,43.1,30.31,South,188,0.0,0.0,88,0.00,CLR,,0.00,WeatherDisplay:10.37,2013-06-02 02:02:00,
2013-06-02 03:07:00,46.5,43.1,30.31,South,188,0.0,0.0,88,0.00,CLR,,0.00,WeatherDisplay:10.37,2013-06-02 02:07:00,
2013-06-02 03:12:00,46.4,43.0,30.31,South,188,0.0,0.0,88,0.00,CLR,,0.00,WeatherDisplay:10.37,2013-06-02 02:12:00,
2013-06-02 03:17:00,46.3,42.9,30.31,South,188,0.0,0.0,88,0.00,CLR,,0.00,WeatherDisplay:10.37,2013-06-02 02:17:00,
2013-06-02 03:22:00,46.2,43.1,30.32,South,188,0.0,0.0,89,0.00,CLR,,0.00,WeatherDisplay:10.37,2013-06-02 02:22:00,
2013-06-02 03:27:00,46.1,43.0,30.31,South,188,0.0,0.0,89,0.00,CLR,,0.00,WeatherDisplay:10.37,2013-06-02 02:27:00,
2013-06-02 03:32:00,46.0,42.9,30.31,South,188,0.0,0.0,89,0.00,CLR,,0.00,WeatherDisplay:10.37,2013-06-02 02:32:00,
2013-06-02 03:37:00,46.0,42.9,30.31,South,188,0.0,0.0,89,0.00,CLR,,0.00,WeatherDisplay:10.37,2013-06-02 02:37:00,
2013-06-02 03:42:00,46.0,43.2,30.31,South,188,0.0,0.0,90,0.00,CLR,,0.00,WeatherDisplay:10.37,2013-06-02 02:42:00,
2013-06-02 03:47:00,46.0,43.2,30.32,South,188,0.0,0.0,90,0.00,CLR,,0.00,WeatherDisplay:10.37,2013-06-02 02:47:00,
2013-06-02 03:52:00,46.0,43.2,30.32,South,188,0.0,0.0,90,0.00,CLR,,0.00,WeatherDisplay:10.37,2013-06-02 02:52:00,
2013-06-02 03:57:00,45.8,43.0,30.32,South,188,0.0,0.0,90,0.00,CLR,,0.00,WeatherDisplay:10.37,2013-06-02 02:57:00,
2013-06-02 04:02:00,45.7,42.9,30.32,South,188,0.0,0.0,90,0.00,CLR,,0.00,WeatherDisplay:10.37,2013-06-02 03:02:00,
2013-06-02 04:07:00,45.5,42.7,30.32,South,188,0.0,0.0,90,0.00,CLR,,0.00,WeatherDisplay:10.37,2013-06-02 03:07:00,
2013-06-02 04:12:00,45.4,42.6,30.32,South,188,0.0,0.0,90,0.00,CLR,,0.00,WeatherDisplay:10.37,2013-06-02 03:12:00,
2013-06-02 04:17:00,45.2,42.4,30.32,South,188,0.0,0.0,90,0.00,CLR,,0.00,WeatherDisplay:10.37,2013-06-02 03:17:00,
2013-06-02 04:22:00,45.1,42.3,30.32,South,188,0.0,0.0,90,0.00,CLR,,0.00,WeatherDisplay:10.37,2013-06-02 03:22:00,
2013-06-02 04:27:00,45.2,42.7,30.32,South,188,0.0,0.0,91,0.00,CLR,,0.00,WeatherDisplay:10.37,2013-06-02 03:27:00,
2013-06-02 04:32:00,45.3,42.8,30.32,South,188,0.0,0.0,91,0.00,CLR,,0.00,WeatherDisplay:10.37,2013-06-02 03:32:00,
2013-06-02 04:37:00,45.3,43.1,30.32,South,188,0.0,0.0,92,0.00,CLR,,0.00,WeatherDisplay:10.37,2013-06-02 03:37:00,
2013-06-02 04:42:00,45.4,43.2,30.32,South,189,0.0,0.0,92,0.00,CLR,,0.00,WeatherDisplay:10.37,2013-06-02 03:42:00,
2013-06-02 04:47:00,45.3,43.1,30.32,South,188,0.0,0.0,92,0.00,CLR,,0.00,WeatherDisplay:10.37,2013-06-02 03:47:00,
2013-06-02 04:52:00,45.4,43.2,30.33,South,188,0.0,0.0,92,0.00,CLR,,0.00,WeatherDisplay:10.37,2013-06-02 03:52:00,
2013-06-02 04:57:00,45.4,43.2,30.33,South,188,0.0,0.0,92,0.00,CLR,,0.00,WeatherDisplay:10.37,2013-06-02 03:57:00,
2013-06-02 05:01:00,45.3,43.1,30.33,South,188,0.0,0.0,92,0.00,CLR,,0.00,WeatherDisplay:10.37,2013-06-02 04:01:00,
2013-06-02 05:06:00,45.2,43.0,30.33,South,189,0.0,0.0,92,0.00,CLR,,0.00,WeatherDisplay:10.37,2013-06-02 04:06:00,
2013-06-02 05:11:00,45.1,42.9,30.33,South,188,0.0,0.0,92,0.00,CLR,,0.00,WeatherDisplay:10.37,2013-06-02 04:11:00,
2013-06-02 05:16:00,45.0,42.8,30.33,South,188,0.0,0.0,92,0.00,CLR,,0.00,WeatherDisplay:10.37,2013-06-02 04:16:00,
2013-06-02 05:21:00,45.2,43.3,30.33,South,188,0.0,0.0,93,0.00,CLR,,0.00,WeatherDisplay:10.37,2013-06-02 04:21:00,
2013-06-02 05:26:00,45.3,43.4,30.33,SSE,152,0.0,0.0,93,0.00,CLR,,0.00,WeatherDisplay:10.37,2013-06-02 04:26:00,
2013-06-02 05:31:00,45.5,43.6,30.33,SSE,152,0.0,0.0,93,0.00,CLR,,0.00,WeatherDisplay:10.37,2013-06-02 04:31:00,
2013-06-02 05:36:00,45.6,43.7,30.33,SSE,153,0.0,0.0,93,0.00,CLR,,0.00,WeatherDisplay:10.37,2013-06-02 04:36:00,
2013-06-02 05:41:00,45.9,44.0,30.34,SSE,153,0.0,0.0,93,0.00,CLR,,0.00,WeatherDisplay:10.37,2013-06-02 04:41:00,
2013-06-02 05:46:00,46.2,44.3,30.34,SSE,152,0.0,0.0,93,0.00,CLR,,0.00,WeatherDisplay:10.37,2013-06-02 04:46:00,
2013-06-02 05:51:00,46.3,44.4,30.34,SSE,152,0.0,0.0,93,0.00,CLR,,0.00,WeatherDisplay:10.37,2013-06-02 04:51:00,
2013-06-02 05:56:00,46.4,44.5,30.34,SSE,152,0.0,0.0,93,0.00,CLR,,0.00,WeatherDisplay:10.37,2013-06-02 04:56:00,
2013-06-02 06:01:00,46.5,44.6,30.34,SSE,152,0.0,0.0,93,0.00,CLR,,0.00,WeatherDisplay:10.37,2013-06-02 05:01:00,
2013-06-02 06:06:00,46.6,44.7,30.34,SSE,152,0.0,0.0,93,0.00,CLR,,0.00,WeatherDisplay:10.37,2013-06-02 05:06:00,
2013-06-02 06:11:00,46.7,44.8,30.34,SW,215,0.0,0.0,93,0.00,CLR,,0.00,WeatherDisplay:10.37,2013-06-02 05:11:00,
2013-06-02 06:16:00,46.9,45.0,30.34,SW,214,0.0,0.0,93,0.00,CLR,,0.00,WeatherDisplay:10.37,2013-06-02 05:16:00,
2013-06-02 06:21:00,47.1,45.2,30.34,SW,214,1.1,0.0,93,0.00,CLR,,0.00,WeatherDisplay:10.37,2013-06-02 05:21:00,
2013-06-02 06:26:00,47.6,45.4,30.35,SSW,209,0.0,0.0,92,0.00,CLR,,0.00,WeatherDisplay:10.37,2013-06-02 05:26:00,
2013-06-02 06:31:00,48.0,45.5,30.35,ENE,71,1.0,1.0,91,0.00,CLR,,0.00,WeatherDisplay:10.37,2013-06-02 05:31:00,
2013-06-02 06:36:00,48.5,45.7,30.35,WNW,294,1.1,1.1,90,0.00,CLR,,0.00,WeatherDisplay:10.37,2013-06-02 05:36:00,
2013-06-02 06:41:00,48.9,46.1,30.35,ENE,71,0.0,0.0,90,0.00,CLR,,0.00,WeatherDisplay:10.37,2013-06-02 05:41:00,
2013-06-02 06:46:00,49.2,46.1,30.35,North,4,0.0,0.0,89,0.00,CLR,,0.00,WeatherDisplay:10.37,2013-06-02 05:46:00,
2013-06-02 06:51:00,49.6,46.2,30.35,ENE,77,0.0,0.0,88,0.00,CLR,,0.00,WeatherDisplay:10.37,2013-06-02 05:51:00,
2013-06-02 06:56:00,50.1,46.4,30.35,East,81,1.1,1.1,87,0.00,CLR,,0.00,WeatherDisplay:10.37,2013-06-02 05:56:00,
2013-06-02 07:01:00,50.4,46.1,30.35,West,266,2.3,2.3,85,0.00,CLR,,0.00,WeatherDisplay:10.37,2013-06-02 06:01:00,
2013-06-02 07:06:00,50.7,46.4,30.35,ENE,68,2.0,2.0,85,0.00,CLR,,0.00,WeatherDisplay:10.37,2013-06-02 06:06:00,
2013-06-02 07:11:00,51.0,46.3,30.35,NNE,33,1.1,0.0,84,0.00,CLR,,0.00,WeatherDisplay:10.37,2013-06-02 06:11:00,
2013-06-02 07:16:00,51.3,46.6,30.35,East,82,1.1,0.0,84,0.00,CLR,,0.00,WeatherDisplay:10.37,2013-06-02 06:16:00,
2013-06-02 07:21:00,51.6,46.6,30.35,SW,226,0.0,0.0,83,0.00,CLR,,0.00,WeatherDisplay:10.37,2013-06-02 06:21:00,
2013-06-02 07:26:00,52.0,47.0,30.35,NNW,344,3.0,3.0,83,0.00,CLR,,0.00,WeatherDisplay:10.37,2013-06-02 06:26:00,
2013-06-02 07:31:00,52.3,46.6,30.36,East,93,1.1,1.1,81,0.00,CLR,,0.00,WeatherDisplay:10.37,2013-06-02 06:31:00,
2013-06-02 07:36:00,52.7,46.7,30.36,West,280,1.1,0.0,80,0.00,CLR,,0.00,WeatherDisplay:10.37,2013-06-02 06:36:00,
2013-06-02 07:41:00,53.1,46.4,30.36,ENE,65,0.0,0.0,78,0.00,CLR,,0.00,WeatherDisplay:10.37,2013-06-02 06:41:00,
2013-06-02 07:46:00,53.4,46.4,30.36,SE,139,1.1,1.1,77,0.00,CLR,,0.00,WeatherDisplay:10.37,2013-06-02 06:46:00,
2013-06-02 07:51:00,53.8,46.1,30.36,ENE,77,1.1,1.1,75,0.00,CLR,,0.00,WeatherDisplay:10.37,2013-06-02 06:51:00,
2013-06-02 07:56:00,54.0,46.3,30.36,SW,229,1.1,0.0,75,0.00,CLR,,0.00,WeatherDisplay:10.37,2013-06-02 06:56:00,
2013-06-02 08:01:00,54.3,46.2,30.36,North,4,2.3,2.3,74,0.00,CLR,,0.00,WeatherDisplay:10.37,2013-06-02 07:01:00,
2013-06-02 08:06:00,54.6,45.8,30.36,West,281,2.3,2.3,72,0.00,CLR,,0.00,WeatherDisplay:10.37,2013-06-02 07:06:00,
2013-06-02 08:11:00,54.9,46.0,30.36,SE,131,1.0,0.0,72,0.00,CLR,,0.00,WeatherDisplay:10.37,2013-06-02 07:11:00,
2013-06-02 08:16:00,55.4,45.8,30.36,NNE,23,0.0,0.0,70,0.00,CLR,,0.00,WeatherDisplay:10.37,2013-06-02 07:16:00,
2013-06-02 08:21:00,56.2,46.2,30.36,West,264,1.1,0.0,69,0.00,CLR,,0.00,WeatherDisplay:10.37,2013-06-02 07:21:00,
2013-06-02 08:26:00,57.2,45.5,30.36,WNW,290,3.5,3.5,65,0.00,CLR,,0.00,WeatherDisplay:10.37,2013-06-02 07:26:00,
2013-06-02 08:31:00,57.8,45.7,30.36,North,1,1.1,1.1,64,0.00,CLR,,0.00,WeatherDisplay:10.37,2013-06-02 07:31:00,
2013-06-02 08:36:00,58.6,46.0,30.36,NNW,327,1.1,1.1,63,0.00,CLR,,0.00,WeatherDisplay:10.37,2013-06-02 07:36:00,
2013-06-02 08:41:00,59.0,45.1,30.36,NNW,337,2.0,2.0,60,0.00,CLR,,0.00,WeatherDisplay:10.37,2013-06-02 07:41:00,
2013-06-02 08:46:00,59.2,45.8,30.36,West,267,1.1,1.1,61,0.00,CLR,,0.00,WeatherDisplay:10.37,2013-06-02 07:46:00,
2013-06-02 08:51:00,59.9,45.5,30.37,NW,314,3.5,3.5,59,0.00,CLR,,0.00,WeatherDisplay:10.37,2013-06-02 07:51:00,
2013-06-02 08:56:00,59.8,44.5,30.36,ENE,63,3.5,3.5,57,0.00,CLR,,0.00,WeatherDisplay:10.37,2013-06-02 07:56:00,
2013-06-02 09:01:00,60.0,45.2,30.36,NW,326,1.1,1.1,58,0.00,CLR,,0.00,WeatherDisplay:10.37,2013-06-02 08:01:00,
2013-06-02 09:06:00,60.4,45.5,30.37,West,275,1.1,1.1,58,0.00,CLR,,0.00,WeatherDisplay:10.37,2013-06-02 08:06:00,
2013-06-02 09:11:00,60.8,44.5,30.37,NNW,347,2.3,2.3,55,0.00,CLR,,0.00,WeatherDisplay:10.37,2013-06-02 08:11:00,
2013-06-02 09:16:00,61.0,45.2,30.36,ENE,68,2.3,2.3,56,0.00,CLR,,0.00,WeatherDisplay:10.37,2013-06-02 08:16:00,
2013-06-02 09:21:00,61.3,45.0,30.36,NW,326,1.1,1.1,55,0.00,CLR,,0.00,WeatherDisplay:10.37,2013-06-02 08:21:00,
2013-06-02 09:26:00,61.6,45.3,30.36,ESE,103,0.0,0.0,55,0.00,CLR,,0.00,WeatherDisplay:10.37,2013-06-02 08:26:00,
2013-06-02 09:31:00,61.8,45.0,30.36,North,1,2.3,2.3,54,0.00,CLR,,0.00,WeatherDisplay:10.37,2013-06-02 08:31:00,
2013-06-02 09:36:00,62.0,46.1,30.36,SSW,197,0.0,0.0,56,0.00,CLR,,0.00,WeatherDisplay:10.37,2013-06-02 08:36:00,
2013-06-02 09:41:00,62.3,45.9,30.36,NNE,22,1.0,1.0,55,0.00,CLR,,0.00,WeatherDisplay:10.37,2013-06-02 08:41:00,
2013-06-02 09:46:00,62.6,44.7,30.37,ENE,61,2.3,2.3,52,0.00,CLR,,0.00,WeatherDisplay:10.37,2013-06-02 08:46:00,
2013-06-02 09:51:00,62.6,44.7,30.37,West,262,1.1,1.1,52,0.00,CLR,,0.00,WeatherDisplay:10.37,2013-06-02 08:51:00,
2013-06-02 09:56:00,62.7,44.3,30.36,North,1,3.5,3.5,51,0.00,CLR,,0.00,WeatherDisplay:10.37,2013-06-02 08:56:00,
2013-06-02 10:01:00,62.8,45.4,30.36,SW,226,1.1,1.1,53,0.00,CLR,,0.00,WeatherDisplay:10.37,2013-06-02 09:01:00,
2013-06-02 10:06:00,63.1,45.2,30.36,WNW,287,2.0,2.0,52,0.00,CLR,,0.00,WeatherDisplay:10.37,2013-06-02 09:06:00,
2013-06-02 10:11:00,62.9,45.5,30.36,NNW,327,2.0,2.0,53,0.00,CLR,,0.00,WeatherDisplay:10.37,2013-06-02 09:11:00,
2013-06-02 10:16:00,62.6,45.2,30.36,WNW,291,2.3,2.3,53,0.00,CLR,,0.00,WeatherDisplay:10.37,2013-06-02 09:16:00,
2013-06-02 10:21:00,63.1,45.7,30.36,WNW,297,8.1,8.1,53,0.00,CLR,,0.00,WeatherDisplay:10.37,2013-06-02 09:21:00,
2013-06-02 10:26:00,63.1,44.7,30.37,South,179,3.5,3.5,51,0.00,CLR,,0.00,WeatherDisplay:10.37,2013-06-02 09:26:00,
2013-06-02 10:31:00,63.7,45.2,30.36,ENE,64,3.0,3.0,51,0.00,CLR,,0.00,WeatherDisplay:10.37,2013-06-02 09:31:00,
2013-06-02 10:36:00,64.0,46.0,30.37,ESE,108,2.3,2.3,52,0.00,CLR,,0.00,WeatherDisplay:10.37,2013-06-02 09:36:00,
2013-06-02 10:41:00,64.1,44.5,30.36,ESE,116,2.0,2.0,49,0.00,CLR,,0.00,WeatherDisplay:10.37,2013-06-02 09:41:00,
2013-06-02 10:46:00,64.3,43.6,30.36,North,351,2.3,2.3,47,0.00,CLR,,0.00,WeatherDisplay:10.37,2013-06-02 09:46:00,
2013-06-02 10:51:00,63.3,43.8,30.36,West,279,2.3,2.3,49,0.00,CLR,,0.00,WeatherDisplay:10.37,2013-06-02 09:51:00,
2013-06-02 10:56:00,62.9,44.0,30.36,NW,318,1.1,1.1,50,0.00,CLR,,0.00,WeatherDisplay:10.37,2013-06-02 09:56:00,
2013-06-02 11:01:00,63.1,43.6,30.36,WSW,249,3.5,3.5,49,0.00,CLR,,0.00,WeatherDisplay:10.37,2013-06-02 10:01:00,
2013-06-02 11:06:00,62.6,45.2,30.36,North,3,0.0,0.0,53,0.00,CLR,,0.00,WeatherDisplay:10.37,2013-06-02 10:06:00,
2013-06-02 11:11:00,62.4,44.5,30.37,WSW,256,0.0,0.0,52,0.00,CLR,,0.00,WeatherDisplay:10.37,2013-06-02 10:11:00,
2013-06-02 11:16:00,62.9,45.0,30.37,East,89,2.3,2.3,52,0.00,CLR,,0.00,WeatherDisplay:10.37,2013-06-02 10:16:00,
2013-06-02 11:21:00,63.1,43.1,30.37,WNW,287,2.0,2.0,48,0.00,CLR,,0.00,WeatherDisplay:10.37,2013-06-02 10:21:00,
2013-06-02 11:26:00,62.8,43.3,30.37,North,6,1.1,0.0,49,0.00,CLR,,0.00,WeatherDisplay:10.37,2013-06-02 10:26:00,
2013-06-02 11:31:00,62.2,43.3,30.37,West,276,1.1,1.1,50,0.00,CLR,,0.00,WeatherDisplay:10.37,2013-06-02 10:31:00,
2013-06-02 11:36:00,62.4,42.4,30.37,NNE,18,2.3,2.3,48,0.00,CLR,,0.00,WeatherDisplay:10.37,2013-06-02 10:36:00,
2013-06-02 11:41:00,63.5,44.0,30.37,East,84,4.6,4.6,49,0.00,CLR,,0.00,WeatherDisplay:10.37,2013-06-02 10:41:00,
2013-06-02 11:46:00,63.6,43.5,30.37,NNE,26,2.3,2.3,48,0.00,CLR,,0.00,WeatherDisplay:10.37,2013-06-02 10:46:00,
2013-06-02 11:51:00,64.1,45.6,30.37,West,269,0.0,0.2,51,0.00,CLR,,0.00,WeatherDisplay:10.37,2013-06-02 10:51:00,
2013-06-02 11:56:00,64.7,44.0,30.37,South,174,2.3,2.3,47,0.00,CLR,,0.00,WeatherDisplay:10.37,2013-06-02 10:56:00,
2013-06-02 12:01:00,64.3,45.3,30.37,West,262,0.0,0.1,50,0.00,CLR,,0.00,WeatherDisplay:10.37,2013-06-02 11:01:00,
2013-06-02 12:06:00,64.3,44.7,30.37,NE,49,3.5,3.5,49,0.00,CLR,,0.00,WeatherDisplay:10.37,2013-06-02 11:06:00,
2013-06-02 12:11:00,63.9,45.4,30.37,NW,306,3.5,3.5,51,0.00,CLR,,0.00,WeatherDisplay:10.37,2013-06-02 11:11:00,
2013-06-02 12:16:00,63.5,44.0,30.37,SSW,207,5.0,5.0,49,0.00,CLR,,0.00,WeatherDisplay:10.37,2013-06-02 11:16:00,
2013-06-02 12:21:00,62.9,45.0,30.37,East,84,1.1,0.0,52,0.00,CLR,,0.00,WeatherDisplay:10.37,2013-06-02 11:21:00,
2013-06-02 12:26:00,63.2,44.8,30.37,WSW,255,1.1,1.1,51,0.00,CLR,,0.00,WeatherDisplay:10.37,2013-06-02 11:26:00,
2013-06-02 12:31:00,63.3,45.4,30.37,WNW,293,0.0,0.0,52,0.00,CLR,,0.00,WeatherDisplay:10.37,2013-06-02 11:31:00,
2013-06-02 12:36:00,63.0,44.1,30.37,WSW,238,5.8,5.8,50,0.00,CLR,,0.00,WeatherDisplay:10.37,2013-06-02 11:36:00,
2013-06-02 12:41:00,62.1,43.7,30.37,ENE,63,2.3,2.3,51,0.00,CLR,,0.00,WeatherDisplay:10.37,2013-06-02 11:41:00,
2013-06-02 12:46:00,62.2,45.8,30.37,ENE,65,2.0,2.0,55,0.00,CLR,,0.00,WeatherDisplay:10.37,2013-06-02 11:46:00,
2013-06-02 12:51:00,63.2,44.8,30.37,East,96,3.5,3.5,51,0.00,CLR,,0.00,WeatherDisplay:10.37,2013-06-02 11:51:00,
2013-06-02 12:56:00,63.4,44.9,30.37,WSW,251,3.5,3.5,51,0.00,CLR,,0.00,WeatherDisplay:10.37,2013-06-02 11:56:00,
2013-06-02 13:01:00,63.8,43.7,30.38,ENE,70,2.3,2.3,48,0.00,CLR,,0.00,WeatherDisplay:10.37,2013-06-02 12:01:00,
2013-06-02 13:06:00,63.7,44.7,30.37,NNE,18,1.1,1.1,50,0.00,CLR,,0.00,WeatherDisplay:10.37,2013-06-02 12:06:00,
2013-06-02 13:11:00,63.6,44.6,30.37,East,98,1.1,1.1,50,0.00,CLR,,0.00,WeatherDisplay:10.37,2013-06-02 12:11:00,
2013-06-02 13:16:00,63.4,44.9,30.37,NNE,32,1.1,0.0,51,0.00,CLR,,0.00,WeatherDisplay:10.37,2013-06-02 12:16:00,
2013-06-02 13:21:00,63.0,44.1,30.37,West,260,3.5,3.5,50,0.00,CLR,,0.00,WeatherDisplay:10.37,2013-06-02 12:21:00,
2013-06-02 13:26:00,63.6,46.1,30.37,SW,227,2.3,2.3,53,0.00,CLR,,0.00,WeatherDisplay:10.37,2013-06-02 12:26:00,
2013-06-02 13:31:00,64.3,43.1,30.37,WSW,253,4.6,4.6,46,0.00,CLR,,0.00,WeatherDisplay:10.37,2013-06-02 12:31:00,
2013-06-02 13:36:00,64.5,42.7,30.37,SSW,205,3.5,3.5,45,0.00,CLR,,0.00,WeatherDisplay:10.37,2013-06-02 12:36:00,
2013-06-02 13:41:00,65.0,43.7,30.37,West,260,5.8,5.8,46,0.00,CLR,,0.00,WeatherDisplay:10.37,2013-06-02 12:41:00,
2013-06-02 13:46:00,65.9,45.1,30.37,NW,321,3.5,3.5,47,0.00,CLR,,0.00,WeatherDisplay:10.37,2013-06-02 12:46:00,
2013-06-02 13:51:00,65.1,44.9,30.37,WNW,300,2.3,2.3,48,0.00,CLR,,0.00,WeatherDisplay:10.37,2013-06-02 12:51:00,
2013-06-02 13:56:00,64.4,44.8,30.37,West,276,1.1,1.1,49,0.00,CLR,,0.00,WeatherDisplay:10.37,2013-06-02 12:56:00,
2013-06-02 14:01:00,64.7,45.1,30.37,East,87,2.3,2.3,49,0.00,CLR,,0.00,WeatherDisplay:10.37,2013-06-02 13:01:00,
2013-06-02 14:06:00,64.9,43.6,30.37,North,354,3.5,3.5,46,0.00,CLR,,0.00,WeatherDisplay:10.37,2013-06-02 13:06:00,
2013-06-02 14:11:00,64.5,44.9,30.37,ESE,111,1.1,1.1,49,0.00,CLR,,0.00,WeatherDisplay:10.37,2013-06-02 13:11:00,
2013-06-02 14:16:00,64.0,45.0,30.37,East,86,2.3,2.3,50,0.00,CLR,,0.00,WeatherDisplay:10.37,2013-06-02 13:16:00,
2013-06-02 14:21:00,63.9,44.4,30.37,NE,43,1.1,1.1,49,0.00,CLR,,0.00,WeatherDisplay:10.37,2013-06-02 13:21:00,
2013-06-02 14:26:00,63.9,44.9,30.37,West,267,4.0,4.0,50,0.00,CLR,,0.00,WeatherDisplay:10.37,2013-06-02 13:26:00,
2013-06-02 14:31:00,64.9,44.7,30.37,WNW,290,1.1,1.1,48,0.00,CLR,,0.00,WeatherDisplay:10.37,2013-06-02 13:31:00,
2013-06-02 14:36:00,65.4,46.3,30.37,West,280,2.3,2.3,50,0.00,CLR,,0.00,WeatherDisplay:10.37,2013-06-02 13:36:00,
2013-06-02 14:41:00,65.6,43.1,30.37,WSW,256,2.3,2.3,44,0.00,CLR,,0.00,WeatherDisplay:10.37,2013-06-02 13:41:00,
2013-06-02 14:46:00,64.9,43.0,30.37,WSW,243,3.5,3.5,45,0.00,CLR,,0.00,WeatherDisplay:10.37,2013-06-02 13:46:00,
2013-06-02 14:51:00,64.5,42.1,30.37,West,270,4.6,4.6,44,0.00,CLR,,0.00,WeatherDisplay:10.37,2013-06-02 13:51:00,
2013-06-02 14:56:00,64.2,44.6,30.37,WSW,246,1.1,1.1,49,0.00,CLR,,0.00,WeatherDisplay:10.37,2013-06-02 13:56:00,
2013-06-02 15:01:00,65.3,44.5,30.37,West,274,2.3,2.3,47,0.00,CLR,,0.00,WeatherDisplay:10.37,2013-06-02 14:01:00,
2013-06-02 15:06:00,66.1,44.1,30.37,NNW,344,1.1,0.0,45,0.00,CLR,,0.00,WeatherDisplay:10.37,2013-06-02 14:06:00,
2013-06-02 15:11:00,65.4,44.1,30.37,WNW,291,3.5,3.5,46,0.00,CLR,,0.00,WeatherDisplay:10.37,2013-06-02 14:11:00,
2013-06-02 15:16:00,65.1,44.9,30.37,WSW,249,1.1,1.1,48,0.00,CLR,,0.00,WeatherDisplay:10.37,2013-06-02 14:16:00,
2013-06-02 15:21:00,66.2,44.8,30.37,East,88,4.6,4.6,46,0.00,CLR,,0.00,WeatherDisplay:10.37,2013-06-02 14:21:00,
2013-06-02 15:26:00,66.7,47.5,30.37,ESE,122,2.3,2.3,50,0.00,CLR,,0.00,WeatherDisplay:10.37,2013-06-02 14:26:00,
2013-06-02 15:31:00,66.7,42.9,30.37,SW,215,3.5,3.5,42,0.00,CLR,,0.00,WeatherDisplay:10.37,2013-06-02 14:31:00,
2013-06-02 15:36:00,67.3,43.4,30.37,WSW,256,3.5,3.5,42,0.00,CLR,,0.00,WeatherDisplay:10.37,2013-06-02 14:36:00,
2013-06-02 15:41:00,67.3,44.6,30.37,NNW,328,3.5,3.5,44,0.00,CLR,,0.00,WeatherDisplay:10.37,2013-06-02 14:41:00,
2013-06-02 15:46:00,66.7,44.7,30.37,West,281,2.0,2.0,45,0.00,CLR,,0.00,WeatherDisplay:10.37,2013-06-02 14:46:00,
2013-06-02 15:51:00,67.2,47.4,30.37,WSW,239,1.1,1.1,49,0.00,CLR,,0.00,WeatherDisplay:10.37,2013-06-02 14:51:00,
2013-06-02 15:56:00,67.6,46.6,30.37,East,92,2.3,2.3,47,0.00,CLR,,0.00,WeatherDisplay:10.37,2013-06-02 14:56:00,
2013-06-02 16:01:00,67.3,45.2,30.38,NE,51,2.3,2.3,45,0.00,CLR,,0.00,WeatherDisplay:10.37,2013-06-02 15:01:00,
2013-06-02 16:06:00,66.3,44.3,30.38,NNW,333,2.3,2.3,45,0.00,CLR,,0.00,WeatherDisplay:10.37,2013-06-02 15:06:00,
2013-06-02 16:11:00,65.4,44.1,30.38,ENE,71,1.1,1.1,46,0.00,CLR,,0.00,WeatherDisplay:10.37,2013-06-02 15:11:00,
2013-06-02 16:16:00,65.1,45.5,30.38,ENE,77,2.0,2.0,49,0.00,CLR,,0.00,WeatherDisplay:10.37,2013-06-02 15:16:00,
2013-06-02 16:21:00,65.3,44.5,30.38,WSW,245,2.3,2.3,47,0.00,CLR,,0.00,WeatherDisplay:10.37,2013-06-02 15:21:00,
2013-06-02 16:26:00,64.7,44.5,30.38,NNE,30,2.3,2.3,48,0.00,CLR,,0.00,WeatherDisplay:10.37,2013-06-02 15:26:00,
2013-06-02 16:31:00,65.2,45.0,30.38,WNW,288,2.3,2.3,48,0.00,CLR,,0.00,WeatherDisplay:10.37,2013-06-02 15:31:00,
2013-06-02 16:36:00,65.1,43.8,30.38,NW,312,1.0,1.0,46,0.00,CLR,,0.00,WeatherDisplay:10.37,2013-06-02 15:36:00,
2013-06-02 16:41:00,64.8,44.1,30.38,NE,54,3.5,3.5,47,0.00,CLR,,0.00,WeatherDisplay:10.37,2013-06-02 15:41:00,
2013-06-02 16:46:00,64.6,45.0,30.38,NNW,346,0.0,0.0,49,0.00,CLR,,0.00,WeatherDisplay:10.37,2013-06-02 15:46:00,
2013-06-02 16:51:00,65.0,44.8,30.38,ESE,120,1.1,1.1,48,0.00,CLR,,0.00,WeatherDisplay:10.37,2013-06-02 15:51:00,
2013-06-02 16:56:00,65.8,43.9,30.38,NNW,336,3.0,3.0,45,0.00,CLR,,0.00,WeatherDisplay:10.37,2013-06-02 15:56:00,
2013-06-02 17:01:00,66.3,44.9,30.38,West,266,3.5,3.5,46,0.00,CLR,,0.00,WeatherDisplay:10.37,2013-06-02 16:01:00,
2013-06-02 17:06:00,66.2,44.8,30.38,NE,48,1.1,1.1,46,0.00,CLR,,0.00,WeatherDisplay:10.37,2013-06-02 16:06:00,
2013-06-02 17:11:00,65.8,44.4,30.38,East,88,2.3,2.3,46,0.00,CLR,,0.00,WeatherDisplay:10.37,2013-06-02 16:11:00,
2013-06-02 17:16:00,65.4,45.2,30.38,NW,318,2.0,2.0,48,0.00,CLR,,0.00,WeatherDisplay:10.37,2013-06-02 16:16:00,
2013-06-02 17:21:00,65.1,44.4,30.38,West,262,3.5,3.5,47,0.00,CLR,,0.00,WeatherDisplay:10.37,2013-06-02 16:21:00,
2013-06-02 17:26:00,65.1,44.4,30.38,North,354,1.1,1.1,47,0.00,CLR,,0.00,WeatherDisplay:10.37,2013-06-02 16:26:00,
2013-06-02 17:31:00,65.9,45.1,30.38,WSW,243,2.0,2.0,47,0.00,CLR,,0.00,WeatherDisplay:10.37,2013-06-02 16:31:00,
2013-06-02 17:36:00,66.1,44.1,30.38,NNE,32,4.6,4.6,45,0.00,CLR,,0.00,WeatherDisplay:10.37,2013-06-02 16:36:00,
2013-06-02 17:41:00,66.0,45.2,30.38,ESE,112,1.1,1.1,47,0.00,CLR,,0.00,WeatherDisplay:10.37,2013-06-02 16:41:00,
2013-06-02 17:46:00,65.7,44.9,30.38,ESE,113,1.1,0.0,47,0.00,CLR,,0.00,WeatherDisplay:10.37,2013-06-02 16:46:00,
2013-06-02 17:51:00,66.0,44.0,30.38,West,274,1.1,1.1,45,0.00,CLR,,0.00,WeatherDisplay:10.37,2013-06-02 16:51:00,
2013-06-02 17:56:00,66.0,42.9,30.38,NE,53,1.1,0.0,43,0.00,CLR,,0.00,WeatherDisplay:10.37,2013-06-02 16:56:00,
2013-06-02 18:01:00,65.8,43.3,30.38,WNW,298,3.5,3.5,44,0.00,CLR,,0.00,WeatherDisplay:10.37,2013-06-02 17:01:00,
2013-06-02 18:06:00,65.7,43.8,30.38,WSW,246,1.1,1.1,45,0.00,CLR,,0.00,WeatherDisplay:10.37,2013-06-02 17:06:00,
2013-06-02 18:11:00,66.1,44.1,30.37,NW,308,2.3,2.3,45,0.00,CLR,,0.00,WeatherDisplay:10.37,2013-06-02 17:11:00,
2013-06-02 18:16:00,66.3,44.3,30.37,WNW,291,3.5,3.5,45,0.00,CLR,,0.00,WeatherDisplay:10.37,2013-06-02 17:16:00,
2013-06-02 18:21:00,66.4,44.4,30.37,North,358,1.1,1.1,45,0.00,CLR,,0.00,WeatherDisplay:10.37,2013-06-02 17:21:00,
2013-06-02 18:26:00,66.3,43.1,30.37,ENE,57,3.5,3.5,43,0.00,CLR,,0.00,WeatherDisplay:10.37,2013-06-02 17:26:00,
2013-06-02 18:31:00,66.3,44.3,30.38,North,356,0.0,0.0,45,0.00,CLR,,0.00,WeatherDisplay:10.37,2013-06-02 17:31:00,
2013-06-02 18:36:00,66.3,43.1,30.38,West,259,1.1,1.1,43,0.00,CLR,,0.00,WeatherDisplay:10.37,2013-06-02 17:36:00,
2013-06-02 18:41:00,66.6,45.7,30.38,NW,315,2.3,0.0,47,0.00,CLR,,0.00,WeatherDisplay:10.37,2013-06-02 17:41:00,
2013-06-02 18:46:00,66.3,43.1,30.38,NNE,15,2.3,2.3,43,0.00,CLR,,0.00,WeatherDisplay:10.37,2013-06-02 17:46:00,
2013-06-02 18:51:00,65.5,43.6,30.38,NE,50,3.5,3.5,45,0.00,CLR,,0.00,WeatherDisplay:10.37,2013-06-02 17:51:00,
2013-06-02 18:56:00,64.9,43.6,30.38,NNE,23,3.5,3.5,46,0.00,CLR,,0.00,WeatherDisplay:10.37,2013-06-02 17:56:00,
2013-06-02 19:01:00,64.9,43.6,30.38,NNE,25,0.0,0.0,46,0.00,CLR,,0.00,WeatherDisplay:10.37,2013-06-02 18:01:00,
2013-06-02 19:06:00,65.2,43.9,30.38,NNE,26,0.0,0.0,46,0.00,CLR,,0.00,WeatherDisplay:10.37,2013-06-02 18:06:00,
2013-06-02 19:11:00,65.4,43.5,30.38,NW,315,2.3,2.3,45,0.00,CLR,,0.00,WeatherDisplay:10.37,2013-06-02 18:11:00,
2013-06-02 19:16:00,65.7,43.2,30.38,West,278,1.1,1.1,44,0.00,CLR,,0.00,WeatherDisplay:10.37,2013-06-02 18:16:00,
2013-06-02 19:21:00,65.2,42.7,30.39,East,99,2.3,2.3,44,0.00,CLR,,0.00,WeatherDisplay:10.37,2013-06-02 18:21:00,
2013-06-02 19:26:00,64.5,43.3,30.39,NW,326,0.0,0.0,46,0.00,CLR,,0.00,WeatherDisplay:10.37,2013-06-02 18:26:00,
2013-06-02 19:31:00,63.9,43.3,30.39,WSW,250,1.1,1.1,47,0.00,CLR,,0.00,WeatherDisplay:10.37,2013-06-02 18:31:00,
2013-06-02 19:36:00,63.3,42.7,30.39,NE,39,2.3,2.3,47,0.00,CLR,,0.00,WeatherDisplay:10.37,2013-06-02 18:36:00,
2013-06-02 19:41:00,63.1,43.1,30.39,NNE,13,3.5,3.5,48,0.00,CLR,,0.00,WeatherDisplay:10.37,2013-06-02 18:41:00,
2013-06-02 19:46:00,62.5,43.1,30.39,ENE,71,1.1,0.0,49,0.00,CLR,,0.00,WeatherDisplay:10.37,2013-06-02 18:46:00,
2013-06-02 19:51:00,61.7,43.4,30.39,NW,318,0.0,0.0,51,0.00,CLR,,0.00,WeatherDisplay:10.37,2013-06-02 18:51:00,
2013-06-02 19:56:00,61.3,43.5,30.39,WNW,294,1.1,1.1,52,0.00,CLR,,0.00,WeatherDisplay:10.37,2013-06-02 18:56:00,
2013-06-02 20:01:00,61.1,43.3,30.39,NW,310,0.0,0.0,52,0.00,CLR,,0.00,WeatherDisplay:10.37,2013-06-02 19:01:00,
2013-06-02 20:06:00,60.7,43.5,30.40,NNE,32,0.0,0.2,53,0.00,CLR,,0.00,WeatherDisplay:10.37,2013-06-02 19:06:00,
2013-06-02 20:11:00,60.5,43.3,30.40,North,5,0.0,0.0,53,0.00,CLR,,0.00,WeatherDisplay:10.37,2013-06-02 19:11:00,
2013-06-02 20:16:00,60.5,43.3,30.40,NNW,342,1.1,1.1,53,0.00,CLR,,0.00,WeatherDisplay:10.37,2013-06-02 19:16:00,
2013-06-02 20:21:00,60.3,43.1,30.40,NNW,340,0.0,0.0,53,0.00,CLR,,0.00,WeatherDisplay:10.37,2013-06-02 19:21:00,
2013-06-02 20:26:00,59.9,43.2,30.40,NW,316,2.3,2.3,54,0.00,CLR,,0.00,WeatherDisplay:10.37,2013-06-02 19:26:00,
2013-06-02 20:31:00,59.6,43.4,30.40,NW,318,1.1,1.2,55,0.00,CLR,,0.00,WeatherDisplay:10.37,2013-06-02 19:31:00,
2013-06-02 20:36:00,59.4,43.2,30.40,NW,321,1.1,1.1,55,0.00,CLR,,0.00,WeatherDisplay:10.37,2013-06-02 19:36:00,
2013-06-02 20:41:00,59.2,43.5,30.40,North,356,1.1,0.0,56,0.00,CLR,,0.00,WeatherDisplay:10.37,2013-06-02 19:41:00,
2013-06-02 20:46:00,58.9,43.2,30.40,North,356,1.1,0.0,56,0.00,CLR,,0.00,WeatherDisplay:10.37,2013-06-02 19:46:00,
2013-06-02 20:51:00,58.6,43.4,30.41,NW,312,1.1,1.1,57,0.00,CLR,,0.00,WeatherDisplay:10.37,2013-06-02 19:51:00,
2013-06-02 20:56:00,58.2,43.5,30.41,NNW,346,2.3,2.3,58,0.00,CLR,,0.00,WeatherDisplay:10.37,2013-06-02 19:56:00,
2013-06-02 21:01:00,58.0,43.7,30.41,SE,146,1.0,1.0,59,0.00,CLR,,0.00,WeatherDisplay:10.37,2013-06-02 20:01:00,
2013-06-02 21:06:00,57.8,43.6,30.41,WNW,293,2.3,0.0,59,0.00,CLR,,0.00,WeatherDisplay:10.37,2013-06-02 20:06:00,
2013-06-02 21:11:00,57.6,43.8,30.41,WNW,287,2.3,0.0,60,0.00,CLR,,0.00,WeatherDisplay:10.37,2013-06-02 20:11:00,
2013-06-02 21:16:00,57.5,43.7,30.41,West,275,1.1,1.1,60,0.00,CLR,,0.00,WeatherDisplay:10.37,2013-06-02 20:16:00,
2013-06-02 21:21:00,57.2,43.9,30.41,WNW,296,0.0,0.0,61,0.00,CLR,,0.00,WeatherDisplay:10.37,2013-06-02 20:21:00,
2013-06-02 21:26:00,57.0,43.7,30.41,NW,316,3.0,3.0,61,0.00,CLR,,0.00,WeatherDisplay:10.37,2013-06-02 20:26:00,
2013-06-02 21:31:00,57.0,43.7,30.42,WSW,240,6.9,6.9,61,0.00,CLR,,0.00,WeatherDisplay:10.37,2013-06-02 20:31:00,
2013-06-02 21:36:00,57.0,43.7,30.41,WNW,297,1.1,1.1,61,0.00,CLR,,0.00,WeatherDisplay:10.37,2013-06-02 20:36:00,
2013-06-02 21:41:00,56.8,43.5,30.42,WNW,302,1.1,1.1,61,0.00,CLR,,0.00,WeatherDisplay:10.37,2013-06-02 20:41:00,
2013-06-02 21:46:00,56.6,43.3,30.42,NW,305,2.3,2.3,61,0.00,CLR,,0.00,WeatherDisplay:10.37,2013-06-02 20:46:00,
2013-06-02 21:51:00,56.4,43.1,30.42,NW,305,0.0,0.0,61,0.00,CLR,,0.00,WeatherDisplay:10.37,2013-06-02 20:51:00,
2013-06-02 21:56:00,55.9,43.5,30.42,ENE,77,1.1,1.1,63,0.00,CLR,,0.00,WeatherDisplay:10.37,2013-06-02 20:56:00,
2013-06-02 22:01:00,55.6,44.0,30.42,West,269,1.1,0.0,65,0.00,CLR,,0.00,WeatherDisplay:10.37,2013-06-02 21:01:00,
2013-06-02 22:06:00,55.4,45.0,30.42,East,85,1.1,1.1,68,0.00,CLR,,0.00,WeatherDisplay:10.37,2013-06-02 21:06:00,
2013-06-02 22:11:00,55.3,46.1,30.42,West,270,1.1,0.0,71,0.00,CLR,,0.00,WeatherDisplay:10.37,2013-06-02 21:11:00,
2013-06-02 22:16:00,55.1,46.6,30.42,West,265,1.1,1.1,73,0.00,CLR,,0.00,WeatherDisplay:10.37,2013-06-02 21:16:00,
2013-06-02 22:21:00,54.9,47.1,30.42,SW,229,1.1,1.1,75,0.00,CLR,,0.00,WeatherDisplay:10.37,2013-06-02 21:21:00,
2013-06-02 22:26:00,54.6,46.8,30.42,NE,41,1.1,1.1,75,0.00,CLR,,0.00,WeatherDisplay:10.37,2013-06-02 21:26:00,
2013-06-02 22:31:00,54.4,47.0,30.42,NE,49,0.0,0.0,76,0.00,CLR,,0.00,WeatherDisplay:10.37,2013-06-02 21:31:00,
2013-06-02 22:36:00,54.1,47.0,30.43,NE,46,0.0,0.0,77,0.00,CLR,,0.00,WeatherDisplay:10.37,2013-06-02 21:36:00,
2013-06-02 22:41:00,53.7,47.0,30.43,SW,231,1.1,0.0,78,0.00,CLR,,0.00,WeatherDisplay:10.37,2013-06-02 21:41:00,
2013-06-02 22:46:00,53.5,46.8,30.43,SW,235,0.0,0.4,78,0.00,CLR,,0.00,WeatherDisplay:10.37,2013-06-02 21:46:00,
2013-06-02 22:51:00,53.3,46.6,30.43,West,267,1.1,0.0,78,0.00,CLR,,0.00,WeatherDisplay:10.37,2013-06-02 21:51:00,
2013-06-02 22:56:00,53.1,46.4,30.43,West,267,0.0,0.0,78,0.00,CLR,,0.00,WeatherDisplay:10.37,2013-06-02 21:56:00,
2013-06-02 23:01:00,52.8,46.5,30.43,WSW,250,0.0,0.0,79,0.00,CLR,,0.00,WeatherDisplay:10.37,2013-06-02 22:01:00,
2013-06-02 23:06:00,52.6,46.3,30.43,WSW,250,0.0,0.0,79,0.00,CLR,,0.00,WeatherDisplay:10.37,2013-06-02 22:06:00,
2013-06-02 23:11:00,52.3,46.3,30.43,WSW,250,0.0,0.0,80,0.00,CLR,,0.00,WeatherDisplay:10.37,2013-06-02 22:11:00,
2013-06-02 23:16:00,52.0,46.0,30.43,WSW,250,0.0,0.0,80,0.00,CLR,,0.00,WeatherDisplay:10.37,2013-06-02 22:16:00,
2013-06-02 23:21:00,51.6,46.0,30.43,WSW,250,0.0,0.0,81,0.00,CLR,,0.00,WeatherDisplay:10.37,2013-06-02 22:21:00,
2013-06-02 23:26:00,51.4,45.8,30.43,WSW,250,0.0,0.0,81,0.00,CLR,,0.00,WeatherDisplay:10.37,2013-06-02 22:26:00,
2013-06-02 23:31:00,51.1,45.8,30.43,WSW,237,0.0,0.0,82,0.00,CLR,,0.00,WeatherDisplay:10.37,2013-06-02 22:31:00,
2013-06-02 23:36:00,50.9,45.6,30.43,WSW,237,0.0,0.0,82,0.00,CLR,,0.00,WeatherDisplay:10.37,2013-06-02 22:36:00,
2013-06-02 23:41:00,50.7,45.4,30.43,WSW,238,0.0,0.0,82,0.00,CLR,,0.00,WeatherDisplay:10.37,2013-06-02 22:41:00,
2013-06-02 23:46:00,50.5,45.5,30.43,WSW,238,0.0,0.0,83,0.00,CLR,,0.00,WeatherDisplay:10.37,2013-06-02 22:46:00,
2013-06-02 23:51:00,50.2,45.2,30.43,WSW,238,0.0,0.0,83,0.00,CLR,,0.00,WeatherDisplay:10.37,2013-06-02 22:51:00,
2013-06-02 23:56:00,50.0,45.4,30.43,WSW,238,0.0,0.0,84,0.00,CLR,,0.00,WeatherDisplay:10.37,2013-06-02 22:56:00,